Calicut International Airport

Jump to: basic info | weather | frequencies | runways | comments

Related pages: nearby airports | nearby navaids | notams | map

Basic information (top)

Codes: CCJ VOCL
Location: lon 11.136800, lat 75.955299, elev 342 ft / 104 m msl
Status: large_airport
Scheduled airline service: yes
Links: Wikipedia Mobile

Weather (top)

Current conditions (rec'd 2014/11/23 15:30Z):

VOCL 231530Z 32003KT 4000 HZ SCT012 FEW025CB BKN080 26/24 Q1011 NOSIG

Airport forecast (rec'd 2014/11/23 12:00Z):

TAF VOCL 230900Z 2312/2418 25005KT 5000 HZ SCT010 SCT015 BKN090 
      TEMPO 2312/2315 2000 TSRA/RA SCT008 SCT012 FEW025CB OVC090 
      BECMG 2317/2318 00000KT 4000 HZ 
      TEMPO 2400/2403 2000 TSRA/RA SCT008 SCT012 FEW025CB OVC090 
      BECMG 2403/2404 12005KT 5000 HZ 
      BECMG 2405/2406 25005KT 6000 
      TEMPO 2409/2412 2000 TSRA/RA SCT008 SCT012 FEW025CB OVC090 
      BECMG 2417/2418 00000KT 4000 HZ

Frequencies (top)

Verify before use: may be inaccurate or out of date.

ATIS: 127 MHz (ATIS)
TWR: 122.95 MHz (TWR)

Runways (top)

10/28: 9,383 x 150 ft (2,860 x 46 m) — paved — lighted

Latest comments (top)

Moideenkutty oorakam ( CCJ ): Calicut int airport ( Terminal,1 - ... [read]

Info: Calicut International Airport ... [read]

More... (top)

See also NOTAMs and nearby airports and navaids, or visit the Calicut International Airport page at the main OurAirports website..